| Date | Time | Temp. (oF) | Dew Point (oF) | Rel. Hum. (%) | Press. (in.) | Wind Dir. | Wind Speed (mph) | Hourly Rainfall (in.) |
|
|---|---|---|---|---|---|---|---|---|---|
| 1 | 04/09 | 00:00 | 43 | 25 | 50 | 29.76 | SW | 1 | 0.00 |
| 2 | 04/08 | 23:00 | 45 | 25 | 47 | 29.75 | SW | 4 | 0.00 |
| 3 | 04/08 | 22:00 | 45 | 25 | 46 | 29.73 | SW | 3 | 0.00 |
| 4 | 04/08 | 21:00 | 46 | 24 | 42 | 29.71 | SW | 2 | 0.00 |
| 5 | 04/08 | 20:00 | 49 | 23 | 37 | 29.68 | WSW | 2 | 0.00 |
| 6 | 04/08 | 19:00 | 51 | 24 | 35 | 29.66 | W | 7 | 0.00 |
| 7 | 04/08 | 18:00 | 52 | 24 | 34 | 29.63 | WSW | 9 | 0.00 |
| 8 | 04/08 | 17:00 | 53 | 25 | 35 | 29.61 | SW | 12 | 0.00 |
| 9 | 04/08 | 16:00 | 52 | 25 | 36 | 29.62 | WSW | 13 | 0.00 |
| 10 | 04/08 | 15:00 | 51 | 27 | 40 | 29.63 | WSW | 9 | 0.00 |
| 11 | 04/08 | 14:00 | 50 | 28 | 43 | 29.65 | WSW | 6 | 0.00 |
| 12 | 04/08 | 13:00 | 48 | 28 | 46 | 29.66 | NW | 8 | 0.00 |
| 13 | 04/08 | 12:00 | 46 | 27 | 48 | 29.67 | W | 9 | 0.00 |
| 14 | 04/08 | 11:00 | 45 | 27 | 50 | 29.68 | SW | 18 | 0.00 |
| 15 | 04/08 | 10:00 | 43 | 28 | 56 | 29.68 | SW | 9 | 0.00 |
| 16 | 04/08 | 09:00 | 40 | 28 | 64 | 29.69 | WSW | 9 | 0.00 |
| 17 | 04/08 | 08:00 | 36 | 28 | 74 | 29.69 | SW | 6 | 0.00 |
| 18 | 04/08 | 07:00 | 35 | 28 | 78 | 29.68 | SW | 6 | 0.00 |
| 19 | 04/08 | 06:00 | 36 | 28 | 74 | 29.67 | WSW | 6 | 0.00 |
| 20 | 04/08 | 05:00 | 37 | 27 | 68 | 29.65 | SSW | 6 | 0.00 |
| 21 | 04/08 | 04:00 | 36 | 26 | 68 | 29.64 | W | 7 | 0.00 |
| 22 | 04/08 | 03:00 | 37 | 26 | 66 | 29.64 | W | 7 | 0.00 |
| 23 | 04/08 | 02:00 | 37 | 26 | 65 | 29.65 | SW | 5 | 0.00 |
| 24 | 04/08 | 01:00 | 36 | 25 | 66 | 29.65 | SW | 5 | 0.00 |